The Hangar Logo

METARs in Plain English
Latest METAR information for EGVN - BRIZE NORTON

EGVN 031150Z 26007KT 9999 FEW039 SCT060 12/02 Q1026 BLU NOSIG

In plain english is....

This is a METAR report for EGVN - BRIZE NORTON .
The report was made 36 minutes ago, at 11:50 UTC.
The wind was blowing at a speed of 7 knots (8.1 miles per hour, 3.6 metres per second) from the West (260°).
The visibility was greater than 6.2 miles (greater than 10 kilometres).
There were a few clouds at a height of 3900 feet (1189 metres) and scattered clouds at a height of 6000 feet (1829 metres).
The temperature was 12°C (54°F), a dew point of 2°C (36°F) and a relative humidity of 50.3%.
The altimeter setting (airfield QNH) was 1,026 hPa (30.30 inHg).
Other remarks BLU NOSIG.

UK Mainland

Ireland

Channel Islands

France

Other



Enter
Tel: 07092 887559 - Fax: 07092 183262

Content copyright © 1999-2016 TheHangar.co.uk. All rights reserved.
Please send your questions, comments, or bug reports to the Webmaster.